createdAt,value
2022-10-02T00:02:43.092Z,101362.63
2022-10-02T00:05:09.646Z,101365.34
2022-10-02T00:07:41.980Z,101362.09
2022-10-02T00:10:20.696Z,101370.28
2022-10-02T00:12:50.347Z,101368.38
2022-10-02T00:15:22.892Z,101368.38
2022-10-02T00:17:53.480Z,101376.84
2022-10-02T00:20:27.811Z,101372.22
2022-10-02T00:23:19.285Z,101381.47
2022-10-02T00:25:59.376Z,101383.38
2022-10-02T00:28:43.952Z,101382.88
2022-10-02T00:31:27.664Z,101388.03
2022-10-02T00:34:15.264Z,101386.41
2022-10-02T00:37:14.484Z,101390.75
2022-10-02T00:40:03.740Z,101389.13
2022-10-02T00:42:39.288Z,101399.50
2022-10-02T00:45:29.426Z,101401.41
2022-10-02T00:48:37.597Z,101400.59
2022-10-02T00:51:21.852Z,101399.78
2022-10-02T00:54:11.498Z,101395.16
2022-10-02T00:57:04.089Z,101389.16
2022-10-02T00:59:43.138Z,101383.72
2022-10-02T01:02:44.947Z,101392.41
2022-10-02T01:05:11.807Z,101403.63
2022-10-02T01:07:42.284Z,101400.34
2022-10-02T01:10:09.244Z,101394.06
2022-10-02T01:12:36.063Z,101396.25
2022-10-02T01:15:02.560Z,101396.00
2022-10-02T01:17:33.227Z,101398.97
2022-10-02T01:20:02.388Z,101404.19
2022-10-02T01:22:43.099Z,101398.72
2022-10-02T01:25:09.754Z,101399.81
2022-10-02T01:27:39.300Z,101399.81
2022-10-02T01:30:09.561Z,101396.25
2022-10-02T01:32:41.128Z,101405.28
2022-10-02T01:35:08.844Z,101404.72
2022-10-02T01:37:39.434Z,101407.47
2022-10-02T01:40:10.728Z,101412.91
2022-10-02T01:42:40.076Z,101412.09
2022-10-02T01:45:08.898Z,101415.94
2022-10-02T01:47:49.576Z,101420.28
2022-10-02T01:50:23.169Z,101418.66
2022-10-02T01:53:11.734Z,101418.66
2022-10-02T01:55:42.950Z,101422.75
2022-10-02T01:58:09.326Z,101425.47
2022-10-02T02:00:44.499Z,101423.56
2022-10-02T02:03:10.970Z,101421.94
2022-10-02T02:06:01.582Z,101420.03
2022-10-02T02:08:34.691Z,101431.22
2022-10-02T02:11:14.169Z,101420.31
2022-10-02T02:13:54.399Z,101429.31
2022-10-02T02:16:36.211Z,101427.66
2022-10-02T02:19:11.307Z,101424.94
2022-10-02T02:22:01.079Z,101433.13
2022-10-02T02:24:48.307Z,101421.69
2022-10-02T02:27:19.846Z,101429.56
2022-10-02T02:29:52.536Z,101432.59
2022-10-02T02:32:24.408Z,101432.59
2022-10-02T02:34:56.861Z,101433.41
2022-10-02T02:37:27.336Z,101429.03
2022-10-02T02:39:59.279Z,101429.31
2022-10-02T02:42:30.690Z,101432.84
2022-10-02T02:45:10.933Z,101442.69
2022-10-02T02:47:48.649Z,101430.97
2022-10-02T02:50:20.878Z,101435.88
2022-10-02T02:53:02.027Z,101430.97
2022-10-02T02:55:33.743Z,101443.75
2022-10-02T02:58:20.764Z,101452.22
2022-10-02T03:00:47.505Z,101453.03
2022-10-02T03:03:14.504Z,101458.78
2022-10-02T03:05:48.027Z,101456.06
2022-10-02T03:08:26.954Z,101451.41
2022-10-02T03:11:21.326Z,101449.78
2022-10-02T03:13:58.332Z,101451.69
2022-10-02T03:16:42.803Z,101456.28
2022-10-02T03:19:21.681Z,101462.59
2022-10-02T03:21:48.070Z,101458.19
2022-10-02T03:24:35.914Z,101459.88
2022-10-02T03:27:11.040Z,101450.03
2022-10-02T03:29:49.421Z,101447.28
2022-10-02T03:32:18.293Z,101450.31
2022-10-02T03:34:45.060Z,101450.31
2022-10-02T03:37:11.717Z,101447.84
2022-10-02T03:39:44.186Z,101456.31
2022-10-02T03:42:13.505Z,101451.66
2022-10-02T03:44:40.226Z,101453.59
2022-10-02T03:47:06.779Z,101459.59
2022-10-02T03:49:33.436Z,101454.41
2022-10-02T03:51:59.996Z,101462.31
2022-10-02T03:54:32.026Z,101458.22
2022-10-02T03:57:08.380Z,101454.41
2022-10-02T04:00:13.180Z,101448.13
2022-10-02T04:03:02.888Z,101442.69
2022-10-02T04:06:10.095Z,101447.31
2022-10-02T04:08:43.518Z,101452.22
2022-10-02T04:11:20.230Z,101444.59
2022-10-02T04:14:03.867Z,101443.78
2022-10-02T04:16:50.661Z,101453.59
2022-10-02T04:19:22.565Z,101453.28
2022-10-02T04:21:56.253Z,101455.22
2022-10-02T04:24:31.231Z,101456.88
2022-10-02T04:27:08.810Z,101459.59
2022-10-02T04:29:59.926Z,101456.56
2022-10-02T04:32:30.051Z,101471.56
2022-10-02T04:34:58.027Z,101480.31
2022-10-02T04:37:31.920Z,101475.97
2022-10-02T04:40:16.797Z,101474.03
2022-10-02T04:43:14.978Z,101477.59
2022-10-02T04:46:08.006Z,101479.50
2022-10-02T04:49:02.957Z,101479.50
2022-10-02T04:52:03.781Z,101486.88
2022-10-02T04:54:42.367Z,101498.59
2022-10-02T04:57:17.915Z,101509.75
2022-10-02T05:00:03.197Z,101510.59
2022-10-02T05:03:11.775Z,101513.31
2022-10-02T05:06:29.237Z,101517.94
2022-10-02T05:09:04.685Z,101526.94
2022-10-02T05:11:49.466Z,101523.16
2022-10-02T05:14:30.613Z,101516.03
2022-10-02T05:17:19.020Z,101519.59
2022-10-02T05:19:57.689Z,101529.41
2022-10-02T05:22:39.059Z,101523.97
2022-10-02T05:25:33.715Z,101532.16
2022-10-02T05:28:28.210Z,101532.97
2022-10-02T05:31:25.909Z,101532.16
2022-10-02T05:34:10.079Z,101535.69
2022-10-02T05:37:07.236Z,101535.97
2022-10-02T05:39:37.647Z,101535.97
2022-10-02T05:42:10.204Z,101539.22
2022-10-02T05:44:50.706Z,101536.78
2022-10-02T05:47:26.215Z,101542.50
2022-10-02T05:50:04.865Z,101556.69
2022-10-02T05:52:55.869Z,101561.34
2022-10-02T05:55:28.274Z,101558.06
2022-10-02T05:58:16.698Z,101571.97
2022-10-02T06:00:46.110Z,101571.16
2022-10-02T06:03:31.285Z,101562.16
2022-10-02T06:06:10.024Z,101561.88
2022-10-02T06:08:42.565Z,101570.34
2022-10-02T06:11:15.897Z,101566.50
2022-10-02T06:14:14.581Z,101571.97
2022-10-02T06:16:53.995Z,101583.97
2022-10-02T06:19:30.729Z,101582.06
2022-10-02T06:22:05.982Z,101576.88
2022-10-02T06:24:55.523Z,101589.44
2022-10-02T06:27:31.668Z,101589.44
2022-10-02T06:30:02.495Z,101594.06
2022-10-02T06:32:37.903Z,101606.63
2022-10-02T06:35:12.031Z,101601.44
2022-10-02T06:38:01.248Z,101605.25
2022-10-02T06:40:36.941Z,101609.63
2022-10-02T06:43:11.693Z,101623.25
2022-10-02T06:46:00.658Z,101621.59
2022-10-02T06:48:46.242Z,101620.53
2022-10-02T06:51:48.850Z,101618.06
2022-10-02T06:54:26.158Z,101626.25
2022-10-02T06:56:58.385Z,101623.53
2022-10-02T06:59:34.726Z,101630.88
2022-10-02T07:02:34.372Z,101635.25
2022-10-02T07:05:36.492Z,101624.63
2022-10-02T07:08:32.324Z,101629.25
2022-10-02T07:11:34.844Z,101633.06
2022-10-02T07:14:13.225Z,101640.41
2022-10-02T07:16:57.714Z,101636.63
2022-10-02T07:20:03.438Z,101640.16
2022-10-02T07:22:50.280Z,101636.06
2022-10-02T07:25:19.762Z,101620.50
2022-10-02T07:28:10.672Z,101625.97
2022-10-02T07:31:18.914Z,101624.34
2022-10-02T07:34:22.049Z,101629.78
2022-10-02T07:37:08.968Z,101636.06
2022-10-02T07:39:52.382Z,101633.34
2022-10-02T07:42:31.581Z,101637.16
2022-10-02T07:45:01.054Z,101648.88
2022-10-02T07:48:06.458Z,101646.16
2022-10-02T07:50:44.295Z,101652.97
2022-10-02T07:53:16.825Z,101661.97
2022-10-02T07:55:48.955Z,101669.91
2022-10-02T07:58:33.597Z,101660.91
2022-10-02T08:01:03.282Z,101673.72
2022-10-02T08:03:37.007Z,101673.72
2022-10-02T08:06:06.350Z,101678.34
2022-10-02T08:08:45.775Z,101682.44
2022-10-02T08:11:34.231Z,101679.72
2022-10-02T08:14:00.774Z,101685.16
2022-10-02T08:16:33.448Z,101692.25
2022-10-02T08:19:08.878Z,101698.00
2022-10-02T08:21:41.049Z,101698.81
2022-10-02T08:24:24.479Z,101699.63
2022-10-02T08:27:10.826Z,101711.63
2022-10-02T08:29:48.145Z,101717.09
2022-10-02T08:32:15.206Z,101714.34
2022-10-02T08:34:44.092Z,101717.34
2022-10-02T08:37:13.231Z,101726.06
2022-10-02T08:39:58.117Z,101724.41
2022-10-02T08:42:39.670Z,101729.06
2022-10-02T08:45:36.690Z,101740.53
2022-10-02T08:48:15.491Z,101729.63
2022-10-02T08:51:21.006Z,101730.72
2022-10-02T08:54:15.614Z,101729.88
2022-10-02T08:57:00.022Z,101747.09
2022-10-02T09:00:03.720Z,101740.78
2022-10-02T09:02:51.989Z,101740.53
2022-10-02T09:05:44.962Z,101741.63
2022-10-02T09:08:33.382Z,101740.78
2022-10-02T09:11:37.409Z,101752.53
2022-10-02T09:14:37.333Z,101749.81
2022-10-02T09:17:37.347Z,101753.34
2022-10-02T09:20:22.564Z,101768.63
2022-10-02T09:23:26.890Z,101760.72
2022-10-02T09:25:59.126Z,101764.25
2022-10-02T09:28:43.676Z,101761.53
2022-10-02T09:31:40.213Z,101770.53
2022-10-02T09:34:19.257Z,101774.06
2022-10-02T09:37:19.854Z,101776.00
2022-10-02T09:39:58.622Z,101775.72
2022-10-02T09:42:43.404Z,101768.63
2022-10-02T09:45:36.575Z,101774.66
2022-10-02T09:48:30.272Z,101794.56
2022-10-02T09:51:26.176Z,101789.34
2022-10-02T09:54:30.352Z,101791.53
2022-10-02T09:57:11.566Z,101793.75
2022-10-02T10:00:15.706Z,101792.63
2022-10-02T10:02:51.294Z,101796.47
2022-10-02T10:05:48.066Z,101798.09
2022-10-02T10:08:36.206Z,101807.91
2022-10-02T10:11:29.256Z,101814.50
2022-10-02T10:14:14.570Z,101817.81
2022-10-02T10:17:08.975Z,101819.44
2022-10-02T10:19:35.400Z,101826.56
2022-10-02T10:22:01.811Z,101826.56
2022-10-02T10:24:37.137Z,101827.09
2022-10-02T10:27:17.058Z,101827.66
2022-10-02T10:29:56.504Z,101827.13
2022-10-02T10:32:30.945Z,101838.56
2022-10-02T10:35:12.648Z,101837.47
2022-10-02T10:38:32.408Z,101837.47
2022-10-02T10:41:05.172Z,101838.28
2022-10-02T10:43:38.392Z,101837.22
2022-10-02T10:46:49.744Z,101833.69
2022-10-02T10:49:29.154Z,101850.88
2022-10-02T10:52:13.927Z,101856.88
2022-10-02T10:54:48.432Z,101863.44
2022-10-02T10:57:23.854Z,101858.78
2022-10-02T11:00:03.454Z,101861.50
2022-10-02T11:03:03.299Z,101874.06
2022-10-02T11:05:57.316Z,101870.25
2022-10-02T11:08:47.462Z,101875.72
2022-10-02T11:11:40.444Z,101873.81
2022-10-02T11:14:21.960Z,101875.44
2022-10-02T11:17:04.235Z,101868.66
2022-10-02T11:19:45.873Z,101872.19
2022-10-02T11:22:40.758Z,101878.75
2022-10-02T11:25:28.485Z,101881.19
2022-10-02T11:28:22.857Z,101881.19
2022-10-02T11:31:03.025Z,101892.09
2022-10-02T11:33:38.239Z,101890.19
2022-10-02T11:36:10.511Z,101892.69
2022-10-02T11:38:59.860Z,101901.69
2022-10-02T11:42:10.084Z,101890.75
2022-10-02T11:44:55.023Z,101889.38
2022-10-02T11:47:51.301Z,101905.75
2022-10-02T11:50:50.007Z,101903.88
2022-10-02T11:53:22.766Z,101907.16
2022-10-02T11:56:22.203Z,101913.41
2022-10-02T11:59:07.124Z,101915.06
2022-10-02T12:02:00.664Z,101922.44
2022-10-02T12:04:52.525Z,101921.38
2022-10-02T12:07:38.552Z,101926.81
2022-10-02T12:10:23.356Z,101926.53
2022-10-02T12:13:17.698Z,101928.19
2022-10-02T12:16:06.263Z,101923.53
2022-10-02T12:18:56.421Z,101930.66
2022-10-02T12:21:41.163Z,101926.81
2022-10-02T12:24:44.639Z,101936.66
2022-10-02T12:27:29.450Z,101941.88
2022-10-02T12:30:28.138Z,101943.78
2022-10-02T12:33:15.073Z,101941.59
2022-10-02T12:36:26.007Z,101935.03
2022-10-02T12:39:11.861Z,101946.75
2022-10-02T12:42:15.197Z,101948.97
2022-10-02T12:45:00.184Z,101937.50
2022-10-02T12:47:51.941Z,101951.16
2022-10-02T12:50:24.160Z,101951.16
2022-10-02T12:53:44.904Z,101961.00
2022-10-02T12:56:39.425Z,101959.09
2022-10-02T12:59:32.974Z,101958.81
2022-10-02T13:02:56.535Z,101963.47
2022-10-02T13:05:25.749Z,101961.28
2022-10-02T13:08:42.956Z,101954.75
2022-10-02T13:11:27.807Z,101968.94
2022-10-02T13:14:15.520Z,101981.50
2022-10-02T13:16:45.027Z,101979.63
2022-10-02T13:19:30.416Z,101971.41
2022-10-02T13:22:16.772Z,101978.50
2022-10-02T13:25:18.872Z,101977.41
2022-10-02T13:28:17.429Z,101977.13
2022-10-02T13:30:55.340Z,101991.88
2022-10-02T13:33:45.049Z,101982.59
2022-10-02T13:36:43.859Z,101994.38
2022-10-02T13:39:29.393Z,101997.91
2022-10-02T13:42:25.897Z,101999.56
2022-10-02T13:44:58.733Z,101998.47
2022-10-02T13:47:58.947Z,101994.66
2022-10-02T13:51:00.167Z,101991.94
2022-10-02T13:53:56.678Z,101996.28
2022-10-02T13:56:34.755Z,101996.81
2022-10-02T13:59:16.388Z,102000.41
2022-10-02T14:01:54.938Z,102003.97
2022-10-02T14:04:30.434Z,102006.44
2022-10-02T14:07:17.623Z,102006.16
2022-10-02T14:09:46.992Z,102007.81
2022-10-02T14:13:02.361Z,102010.28
2022-10-02T14:15:57.130Z,102013.56
2022-10-02T14:18:35.326Z,102026.94
2022-10-02T14:21:33.676Z,102023.97
2022-10-02T14:24:46.395Z,102014.94
2022-10-02T14:27:19.357Z,102023.69
2022-10-02T14:29:52.728Z,102023.41
2022-10-02T14:32:31.919Z,102018.50
2022-10-02T14:34:58.331Z,102022.88
2022-10-02T14:37:55.269Z,102028.34
2022-10-02T14:40:31.192Z,102033.56
2022-10-02T14:43:25.742Z,102027.00
2022-10-02T14:46:10.239Z,102039.56
2022-10-02T14:49:04.636Z,102038.22
2022-10-02T14:51:43.049Z,102041.75
2022-10-02T14:54:10.029Z,102046.41
2022-10-02T14:56:42.400Z,102040.66
2022-10-02T14:59:11.563Z,102045.03
2022-10-02T15:02:08.726Z,102049.41
2022-10-02T15:05:29.505Z,102060.34
2022-10-02T15:07:57.667Z,102073.72
2022-10-02T15:10:33.248Z,102076.22
2022-10-02T15:13:39.786Z,102077.84
2022-10-02T15:16:33.939Z,102083.03
2022-10-02T15:19:16.514Z,102079.19
2022-10-02T15:22:32.167Z,102093.44
2022-10-02T15:25:06.698Z,102092.63
2022-10-02T15:27:45.569Z,102100.53
2022-10-02T15:30:20.322Z,102104.94
2022-10-02T15:33:08.887Z,102106.56
2022-10-02T15:35:59.194Z,102106.28
2022-10-02T15:38:44.051Z,102104.38
2022-10-02T15:41:32.079Z,102114.50
2022-10-02T15:44:00.725Z,102120.78
2022-10-02T15:46:45.759Z,102119.72
2022-10-02T15:49:18.663Z,102123.78
2022-10-02T15:51:54.033Z,102131.19
2022-10-02T15:54:55.628Z,102126.53
2022-10-02T15:57:51.330Z,102134.72
2022-10-02T16:00:26.068Z,102141.84
2022-10-02T16:03:19.194Z,102148.69
2022-10-02T16:05:52.352Z,102150.59
2022-10-02T16:08:30.911Z,102157.69
2022-10-02T16:11:24.576Z,102157.69
2022-10-02T16:14:14.234Z,102158.56
2022-10-02T16:16:41.207Z,102163.72
2022-10-02T16:19:23.305Z,102164.84
2022-10-02T16:22:04.423Z,102163.72
2022-10-02T16:25:08.074Z,102175.50
2022-10-02T16:27:46.952Z,102173.56
2022-10-02T16:30:18.862Z,102188.06
2022-10-02T16:32:54.265Z,102187.25
2022-10-02T16:35:49.487Z,102189.97
2022-10-02T16:38:30.867Z,102192.72
2022-10-02T16:40:59.912Z,102212.66
2022-10-02T16:43:59.050Z,102208.03
2022-10-02T16:46:37.489Z,102208.03
2022-10-02T16:49:16.714Z,102219.78
2022-10-02T16:52:07.923Z,102219.78
2022-10-02T16:55:13.374Z,102217.06
2022-10-02T16:57:39.888Z,102219.78
2022-10-02T17:00:10.875Z,102228.81
2022-10-02T17:02:37.309Z,102227.19
2022-10-02T17:05:28.497Z,102245.47
2022-10-02T17:07:57.879Z,102246.84
2022-10-02T17:10:27.294Z,102248.19
2022-10-02T17:13:16.889Z,102253.66
2022-10-02T17:15:48.941Z,102251.78
2022-10-02T17:18:21.308Z,102257.50
2022-10-02T17:20:55.807Z,102261.56
2022-10-02T17:23:33.115Z,102268.72
2022-10-02T17:26:08.747Z,102280.47
2022-10-02T17:28:51.761Z,102283.19
2022-10-02T17:31:49.191Z,102284.03
2022-10-02T17:34:20.119Z,102292.50
2022-10-02T17:37:04.920Z,102297.13
2022-10-02T17:39:53.182Z,102299.59
2022-10-02T17:42:32.773Z,102301.75
2022-10-02T17:45:18.047Z,102313.50
2022-10-02T17:48:07.706Z,102306.16
2022-10-02T17:50:43.484Z,102316.25
2022-10-02T17:53:45.958Z,102317.91
2022-10-02T17:56:30.687Z,102308.31
2022-10-02T17:59:25.711Z,102325.53
2022-10-02T18:02:10.954Z,102322.00
2022-10-02T18:04:40.516Z,102325.81
2022-10-02T18:07:35.760Z,102326.88
2022-10-02T18:10:11.084Z,102335.09
2022-10-02T18:13:08.451Z,102334.25
2022-10-02T18:15:45.038Z,102340.84
2022-10-02T18:18:11.647Z,102332.63
2022-10-02T18:20:53.411Z,102337.28
2022-10-02T18:23:41.359Z,102335.38
2022-10-02T18:26:26.191Z,102346.28
2022-10-02T18:29:15.160Z,102338.09
2022-10-02T18:32:26.442Z,102343.84
2022-10-02T18:35:07.467Z,102343.84
2022-10-02T18:38:06.355Z,102350.38
2022-10-02T18:40:52.818Z,102355.00
2022-10-02T18:43:22.042Z,102364.31
2022-10-02T18:46:02.748Z,102355.28
2022-10-02T18:48:48.132Z,102356.38
2022-10-02T18:51:36.871Z,102366.47
2022-10-02T18:54:11.606Z,102364.59
2022-10-02T18:57:01.353Z,102370.28
2022-10-02T18:59:34.283Z,102373.31
2022-10-02T19:02:15.827Z,102378.19
2022-10-02T19:05:15.794Z,102381.75
2022-10-02T19:07:52.153Z,102392.69
2022-10-02T19:10:23.188Z,102393.50
2022-10-02T19:12:53.936Z,102392.94
2022-10-02T19:15:25.161Z,102403.88
2022-10-02T19:18:01.041Z,102403.06
2022-10-02T19:20:35.294Z,102400.34
2022-10-02T19:23:06.204Z,102397.84
2022-10-02T19:25:33.651Z,102409.03
2022-10-02T19:28:02.953Z,102415.59
2022-10-02T19:30:33.283Z,102412.59
2022-10-02T19:33:08.177Z,102421.88
2022-10-02T19:35:43.937Z,102423.53
2022-10-02T19:38:46.192Z,102421.88
2022-10-02T19:41:15.009Z,102419.16
2022-10-02T19:43:50.565Z,102423.53
2022-10-02T19:46:19.819Z,102427.34
2022-10-02T19:48:46.812Z,102430.09
2022-10-02T19:53:55.049Z,102433.91
2022-10-02T19:56:30.168Z,102437.72
2022-10-02T19:59:10.873Z,102434.44
2022-10-02T20:06:57.581Z,102446.44
2022-10-02T20:09:31.990Z,102450.00
2022-10-02T20:12:05.998Z,102443.72
2022-10-02T20:14:46.979Z,102451.06
2022-10-02T20:17:14.109Z,102453.78
2022-10-02T20:19:52.438Z,102458.19
2022-10-02T20:22:37.026Z,102465.00
2022-10-02T20:25:28.731Z,102472.38
2022-10-02T20:28:06.082Z,102472.63
2022-10-02T20:30:41.777Z,102470.16
2022-10-02T20:33:31.252Z,102473.97
2022-10-02T20:36:01.649Z,102480.25
2022-10-02T20:38:27.992Z,102483.22
2022-10-02T20:40:57.174Z,102488.69
2022-10-02T20:43:32.793Z,102495.25
2022-10-02T20:46:18.263Z,102488.97
2022-10-02T20:49:07.565Z,102494.44
2022-10-02T20:51:48.195Z,102502.31
2022-10-02T20:54:44.956Z,102508.34
2022-10-02T20:58:02.202Z,102512.69
2022-10-02T21:00:50.571Z,102517.31
2022-10-02T21:03:28.692Z,102520.63
2022-10-02T21:15:31.915Z,102527.41
2022-10-02T21:18:04.706Z,102522.44
2022-10-02T21:20:50.858Z,102528.19
2022-10-02T21:27:11.237Z,102533.66
2022-10-02T21:29:53.831Z,102534.94
2022-10-02T21:32:24.698Z,102554.06
2022-10-02T21:35:09.288Z,102540.66
2022-10-02T21:37:55.228Z,102536.84
2022-10-02T21:40:48.994Z,102535.22
2022-10-02T21:43:39.900Z,102551.00
2022-10-02T21:49:54.052Z,102547.47
2022-10-02T21:53:11.343Z,102550.47
2022-10-02T21:55:56.726Z,102552.09
2022-10-02T21:58:35.382Z,102556.16
2022-10-02T22:01:07.948Z,102563.53
2022-10-02T22:04:11.699Z,102572.53
2022-10-02T22:06:41.173Z,102572.00
2022-10-02T22:09:29.225Z,102563.22
2022-10-02T22:15:08.771Z,102561.34
2022-10-02T22:17:50.028Z,102567.84
2022-10-02T22:20:36.474Z,102569.75
2022-10-02T22:23:15.131Z,102572.50
2022-10-02T22:29:16.431Z,102567.28
2022-10-02T22:34:52.374Z,102576.81
2022-10-02T22:37:41.112Z,102582.00
2022-10-02T22:40:17.590Z,102582.28
2022-10-02T22:43:07.535Z,102582.53
2022-10-02T22:45:48.726Z,102597.84
2022-10-02T22:48:23.495Z,102592.88
2022-10-02T22:50:56.756Z,102598.34
2022-10-02T22:53:40.503Z,102597.50
2022-10-02T22:56:22.810Z,102610.34
2022-10-02T22:58:59.583Z,102598.84
2022-10-02T23:04:32.821Z,102601.56
2022-10-02T23:07:26.253Z,102597.44
2022-10-02T23:10:01.643Z,102603.75
2022-10-02T23:12:44.997Z,102598.50
2022-10-02T23:15:26.792Z,102609.44
2022-10-02T23:17:59.339Z,102606.69
2022-10-02T23:24:12.585Z,102606.16
2022-10-02T23:27:09.238Z,102606.16
2022-10-02T23:30:03.068Z,102603.97
2022-10-02T23:32:31.575Z,102596.31
2022-10-02T23:35:32.750Z,102609.09
2022-10-02T23:38:19.380Z,102602.00
2022-10-02T23:41:30.287Z,102599.53
2022-10-02T23:44:30.627Z,102598.44
2022-10-02T23:47:11.066Z,102594.31
2022-10-02T23:49:56.308Z,102588.84
2022-10-02T23:52:58.333Z,102595.41
2022-10-02T23:58:23.701Z,102596.47
